Time;durP1;ratioP1;P1;durP2;ratioP2;P2;SDS_P1;SDS_P2;PMS_P1;PMS_P2;Temp;Humidity;BMP_temperature;BMP_pressure;BME280_temperature;BME280_humidity;BME280_pressure;Samples;Min_cycle;Max_cycle;Signal;HPM_P1;HPM_P2
2023/06/02 00:01:53;;;;;;;14.95;6.22;;;13.80;99.90;;;;;;5107328;28;20055;-57
2023/06/02 00:04:23;;;;;;;11.50;5.78;;;13.80;99.90;;;;;;5108918;28;20016;-55
2023/06/02 00:06:50;;;;;;;13.63;5.50;;;13.80;99.90;;;;;;5109913;28;20023;-55
2023/06/02 00:09:16;;;;;;;14.40;5.30;;;;;;;;;;5106774;28;20035;-54
2023/06/02 00:11:42;;;;;;;14.50;5.80;;;;;;;;;;5108180;28;20035;-56
2023/06/02 00:14:07;;;;;;;20.38;6.35;;;13.80;99.90;;;;;;5108446;28;20546;-54
2023/06/02 00:16:42;;;;;;;10.20;5.55;;;13.90;99.90;;;;;;5110242;28;20107;-51
2023/06/02 00:19:11;;;;;;;11.13;5.28;;;13.90;99.90;;;;;;5112024;28;20024;-58
2023/06/02 00:21:36;;;;;;;15.60;5.90;;;13.90;99.90;;;;;;5110716;28;20431;-59
2023/06/02 00:24:02;;;;;;;11.40;4.95;;;14.00;99.90;;;;;;5110034;28;20106;-58
2023/06/02 00:26:28;;;;;;;14.82;5.47;;;14.00;99.90;;;;;;5108529;28;20023;-56
2023/06/02 00:28:55;;;;;;;13.68;5.60;;;13.90;99.90;;;;;;5110736;28;20035;-56
2023/06/02 00:31:21;;;;;;;13.60;5.43;;;13.90;99.90;;;;;;5114315;28;20016;-52
2023/06/02 00:33:47;;;;;;;12.57;6.00;;;13.90;99.90;;;;;;5110689;28;20034;-54
2023/06/02 00:36:12;;;;;;;11.80;6.03;;;13.90;99.90;;;;;;5112575;28;20042;-52
2023/06/02 00:38:39;;;;;;;13.57;5.85;;;13.90;99.90;;;;;;5109871;28;20149;-52
2023/06/02 00:41:05;;;;;;;14.27;5.53;;;13.80;99.90;;;;;;5110948;28;20030;-59
2023/06/02 00:43:31;;;;;;;20.33;6.30;;;13.80;99.90;;;;;;5109430;28;20032;-57
2023/06/02 00:45:56;;;;;;;17.67;6.72;;;13.70;99.90;;;;;;5104748;28;20528;-58
2023/06/02 00:48:22;;;;;;;12.27;5.82;;;13.70;99.90;;;;;;5109994;27;20021;-59
2023/06/02 00:50:48;;;;;;;14.43;6.55;;;13.70;99.90;;;;;;5110238;28;20012;-57
2023/06/02 00:53:14;;;;;;;12.70;6.60;;;13.70;99.90;;;;;;5111123;28;20110;-57
2023/06/02 00:55:39;;;;;;;14.07;6.55;;;13.70;99.90;;;;;;5110336;28;20020;-54
2023/06/02 00:58:07;;;;;;;11.65;6.50;;;13.70;99.90;;;;;;5105563;28;20409;-54
2023/06/02 01:00:36;;;;;;;20.83;8.82;;;13.60;99.90;;;;;;5110247;28;20043;-55
2023/06/02 01:03:02;;;;;;;20.15;8.27;;;13.60;99.90;;;;;;5110092;28;20027;-56
2023/06/02 01:05:29;;;;;;;19.63;8.60;;;13.70;99.90;;;;;;5112015;28;20041;-55
2023/06/02 01:08:00;;;;;;;13.57;8.13;;;13.60;99.90;;;;;;5111658;28;20031;-57
2023/06/02 01:10:27;;;;;;;14.70;8.43;;;13.50;99.90;;;;;;5107306;28;20050;-56
2023/06/02 01:12:53;;;;;;;17.90;9.20;;;13.50;99.90;;;;;;5110196;28;20501;-51
2023/06/02 01:15:19;;;;;;;17.42;9.68;;;13.40;99.90;;;;;;5108067;27;20039;-54
2023/06/02 01:17:46;;;;;;;16.15;7.95;;;13.50;99.90;;;;;;5109438;28;20028;-54
2023/06/02 01:20:15;;;;;;;15.98;7.32;;;13.50;99.90;;;;;;5110388;28;20634;-52
2023/06/02 01:23:15;;;;;;;20.65;7.95;;;13.50;99.90;;;;;;5109489;28;20016;-53
2023/06/02 01:25:40;;;;;;;20.02;8.48;;;13.50;99.90;;;;;;5109847;28;20046;-55
2023/06/02 01:28:06;;;;;;;18.10;7.28;;;13.50;99.90;;;;;;5111968;28;20031;-55
2023/06/02 01:30:33;;;;;;;16.42;7.50;;;13.40;99.90;;;;;;5107667;28;20028;-53
2023/06/02 01:33:26;;;;;;;11.68;5.82;;;13.40;99.90;;;;;;5109104;28;20027;-56
2023/06/02 01:35:54;;;;;;;20.92;7.85;;;13.40;99.90;;;;;;5101338;28;20119;-52
2023/06/02 01:38:23;;;;;;;12.13;6.43;;;13.30;99.90;;;;;;5111305;28;20023;-57
2023/06/02 01:40:51;;;;;;;14.38;6.63;;;13.30;99.90;;;;;;5107112;28;20028;-56
2023/06/02 01:43:17;;;;;;;15.35;6.03;;;13.30;99.90;;;;;;5108283;28;20015;-55
2023/06/02 01:45:44;;;;;;;10.95;6.32;;;13.40;99.90;;;;;;5110557;28;20084;-55
2023/06/02 01:48:10;;;;;;;12.65;6.10;;;13.30;99.90;;;;;;5112267;28;20491;-56
2023/06/02 01:50:37;;;;;;;14.32;6.10;;;13.30;99.90;;;;;;5107812;28;20102;-56
2023/06/02 01:53:03;;;;;;;14.48;6.45;;;13.30;99.90;;;;;;5107801;28;20391;-52
2023/06/02 01:55:29;;;;;;;17.23;6.13;;;13.30;99.90;;;;;;5110006;28;20098;-56
2023/06/02 01:57:55;;;;;;;10.10;5.95;;;13.30;99.90;;;;;;5109637;28;20114;-56
2023/06/02 02:00:21;;;;;;;9.23;6.03;;;13.30;99.90;;;;;;5108267;28;20485;-57
2023/06/02 02:02:47;;;;;;;8.30;5.55;;;13.20;99.90;;;;;;5108168;28;20020;-54
2023/06/02 02:05:13;;;;;;;9.88;6.00;;;13.20;99.90;;;;;;5112607;28;20024;-58
2023/06/02 02:07:41;;;;;;;7.72;4.57;;;13.10;99.90;;;;;;5110882;28;20030;-55
2023/06/02 02:10:08;;;;;;;16.88;5.40;;;13.00;99.90;;;;;;5108999;28;20020;-55
2023/06/02 02:12:34;;;;;;;9.57;5.20;;;13.00;99.90;;;;;;5107941;28;20048;-53
2023/06/02 02:15:00;;;;;;;11.25;5.40;;;13.10;99.90;;;;;;5110271;28;20566;-53
2023/06/02 02:17:26;;;;;;;11.50;5.70;;;13.10;99.90;;;;;;5110360;28;20034;-54
2023/06/02 02:19:55;;;;;;;11.65;5.60;;;13.20;99.90;;;;;;5108265;28;20386;-56
2023/06/02 02:22:22;;;;;;;9.82;4.90;;;13.10;99.90;;;;;;5109479;28;20098;-54
2023/06/02 02:24:48;;;;;;;11.95;5.47;;;13.20;99.90;;;;;;5108728;28;20088;-56
2023/06/02 02:27:14;;;;;;;12.05;5.65;;;13.10;99.90;;;;;;5104202;28;20485;-59
2023/06/02 02:29:39;;;;;;;9.75;5.40;;;13.10;99.90;;;;;;5104458;28;20096;-58
2023/06/02 02:32:06;;;;;;;13.00;5.68;;;13.00;99.90;;;;;;5107242;28;20042;-56
2023/06/02 02:34:32;;;;;;;10.80;6.03;;;13.00;99.90;;;;;;5107857;28;20118;-54
2023/06/02 02:37:01;;;;;;;9.75;6.07;;;13.00;99.90;;;;;;5100127;28;20024;-56
2023/06/02 02:39:27;;;;;;;12.05;6.55;;;13.00;99.90;;;;;;5109451;28;20054;-56
2023/06/02 02:41:53;;;;;;;13.23;7.03;;;13.00;99.90;;;;;;5104999;28;20085;-58
2023/06/02 02:44:18;;;;;;;11.02;5.70;;;12.90;99.90;;;;;;5109539;28;20027;-55
2023/06/02 02:46:44;;;;;;;17.70;6.47;;;12.90;99.90;;;;;;5106440;28;20027;-56
2023/06/02 02:49:10;;;;;;;18.75;6.25;;;12.90;99.90;;;;;;5108762;28;20030;-56
2023/06/02 02:51:36;;;;;;;12.20;7.18;;;12.80;99.90;;;;;;5109247;28;20031;-58
2023/06/02 02:54:03;;;;;;;11.73;5.60;;;12.80;99.90;;;;;;5107240;28;20015;-52
2023/06/02 02:56:28;;;;;;;18.17;7.32;;;12.70;99.90;;;;;;5108351;28;20015;-57
2023/06/02 02:58:56;;;;;;;12.25;5.75;;;12.70;99.90;;;;;;5108662;28;20080;-58
2023/06/02 03:01:22;;;;;;;14.50;6.25;;;12.70;99.90;;;;;;5107265;28;20020;-56
2023/06/02 03:03:49;;;;;;;10.63;6.30;;;12.60;99.90;;;;;;5105969;28;20023;-58
2023/06/02 03:06:18;;;;;;;9.68;5.90;;;12.60;99.90;;;;;;5110333;27;20084;-53
2023/06/02 03:08:44;;;;;;;13.40;5.70;;;12.70;99.90;;;;;;5108139;28;20035;-52
2023/06/02 03:11:10;;;;;;;10.60;6.63;;;12.70;99.90;;;;;;5106274;28;20039;-54
2023/06/02 03:13:39;;;;;;;14.20;6.30;;;;;;;;;;5109288;28;20532;-56
2023/06/02 03:16:05;;;;;;;11.77;5.82;;;;;;;;;;5105819;28;20034;-59
2023/06/02 03:18:31;;;;;;;9.73;4.68;;;;;;;;;;5106289;28;20038;-58
2023/06/02 03:20:58;;;;;;;11.73;6.40;;;;;;;;;;5106842;28;20023;-60
2023/06/02 03:23:25;;;;;;;16.60;6.13;;;;;;;;;;5102222;28;20028;-58
2023/06/02 03:25:51;;;;;;;9.70;5.25;;;;;;;;;;5106217;28;20023;-55
2023/06/02 03:28:18;;;;;;;17.10;5.68;;;;;;;;;;5109369;28;20023;-56
2023/06/02 03:30:44;;;;;;;14.65;5.65;;;;;;;;;;5107556;28;20461;-59
2023/06/02 03:33:10;;;;;;;12.05;5.93;;;;;;;;;;5108461;28;20478;-58
2023/06/02 03:35:36;;;;;;;23.08;6.50;;;;;;;;;;5108472;28;20092;-55
2023/06/02 03:38:05;;;;;;;12.85;5.60;;;;;;;;;;5107313;28;20047;-55
2023/06/02 03:40:31;;;;;;;14.48;5.82;;;;;;;;;;5106590;28;20214;-56
2023/06/02 03:42:56;;;;;;;18.13;5.80;;;;;;;;;;5098555;28;20106;-57
2023/06/02 03:45:22;;;;;;;14.48;6.38;;;;;;;;;;5102957;28;20027;-58
2023/06/02 03:47:48;;;;;;;16.33;6.70;;;12.70;99.90;;;;;;5101401;28;20030;-58
2023/06/02 03:50:13;;;;;;;13.38;6.38;;;12.30;99.90;;;;;;5112116;28;20062;-52
2023/06/02 03:52:39;;;;;;;17.55;7.53;;;12.30;99.90;;;;;;5111909;28;20443;-54
2023/06/02 03:55:06;;;;;;;18.05;7.45;;;12.30;99.90;;;;;;5112491;28;20508;-57
2023/06/02 03:57:31;;;;;;;16.50;7.20;;;12.20;99.90;;;;;;5112241;28;20442;-57
2023/06/02 03:59:57;;;;;;;17.48;9.57;;;12.20;99.90;;;;;;5111078;28;20035;-58
2023/06/02 04:02:23;;;;;;;15.93;7.68;;;12.20;99.90;;;;;;5108556;28;20164;-54
2023/06/02 04:04:49;;;;;;;22.02;7.07;;;12.10;99.90;;;;;;5110013;28;20505;-56
2023/06/02 04:07:14;;;;;;;12.52;6.57;;;12.20;99.90;;;;;;5112296;28;20031;-51
2023/06/02 04:09:40;;;;;;;15.20;7.43;;;12.10;99.90;;;;;;5103567;28;20039;-55
2023/06/02 04:12:06;;;;;;;19.90;7.55;;;12.10;99.90;;;;;;5109871;28;20039;-58
2023/06/02 04:14:33;;;;;;;19.90;7.57;;;12.20;99.90;;;;;;5106613;27;20493;-60
2023/06/02 04:16:58;;;;;;;15.65;7.95;;;12.20;99.90;;;;;;5106774;28;20390;-58
2023/06/02 04:19:24;;;;;;;13.63;7.25;;;12.20;99.90;;;;;;5107903;28;20024;-53
2023/06/02 04:21:53;;;;;;;13.00;6.70;;;12.20;99.90;;;;;;5106973;28;20028;-57
2023/06/02 04:24:18;;;;;;;16.63;8.02;;;12.10;99.90;;;;;;5109907;28;20027;-54
2023/06/02 04:26:46;;;;;;;20.27;7.43;;;12.10;99.90;;;;;;5107792;28;20027;-58
2023/06/02 04:29:11;;;;;;;12.52;7.07;;;12.10;99.90;;;;;;5113215;28;20385;-53
2023/06/02 04:31:49;;;;;;;18.73;7.63;;;12.10;99.90;;;;;;5108586;28;20031;-58
2023/06/02 04:34:15;;;;;;;15.18;7.65;;;12.10;99.90;;;;;;5100353;28;20034;-52
2023/06/02 04:36:42;;;;;;;17.60;7.10;;;12.10;99.90;;;;;;5109345;28;20038;-56
2023/06/02 04:39:08;;;;;;;14.48;7.50;;;12.10;99.90;;;;;;5107143;28;20447;-57
2023/06/02 04:41:36;;;;;;;19.88;8.05;;;12.20;99.90;;;;;;5107676;28;20019;-59
2023/06/02 04:44:02;;;;;;;21.88;10.07;;;12.10;99.90;;;;;;5103936;28;20193;-58
2023/06/02 04:46:27;;;;;;;18.63;8.75;;;12.10;99.90;;;;;;5107589;28;20468;-57
2023/06/02 04:48:53;;;;;;;14.50;7.85;;;12.10;99.90;;;;;;5104316;28;20107;-57
2023/06/02 04:51:25;;;;;;;20.65;8.93;;;12.20;99.90;;;;;;5106912;28;20058;-61
2023/06/02 04:53:50;;;;;;;20.42;8.63;;;12.20;99.90;;;;;;5108499;28;20028;-58
2023/06/02 04:56:16;;;;;;;23.88;8.23;;;12.20;99.90;;;;;;5102731;28;20107;-58
2023/06/02 04:58:41;;;;;;;17.60;8.20;;;12.10;99.90;;;;;;5100818;28;21029;-58
2023/06/02 05:01:07;;;;;;;19.27;7.82;;;12.10;99.90;;;;;;5101897;28;20031;-57
2023/06/02 05:03:32;;;;;;;27.30;8.27;;;11.90;99.90;;;;;;5105267;28;20062;-57
2023/06/02 05:05:58;;;;;;;15.60;7.13;;;11.90;99.90;;;;;;5109247;28;20042;-58
2023/06/02 05:08:24;;;;;;;22.67;6.63;;;11.90;99.90;;;;;;5104431;28;20028;-55
2023/06/02 05:10:49;;;;;;;22.92;7.28;;;11.90;99.90;;;;;;5106096;28;20038;-59
2023/06/02 05:13:16;;;;;;;15.20;6.20;;;11.90;99.90;;;;;;5109475;28;20545;-59
2023/06/02 05:15:43;;;;;;;20.02;6.85;;;12.00;99.90;;;;;;5106525;28;20363;-54
2023/06/02 05:18:09;;;;;;;19.10;7.13;;;12.00;99.90;;;;;;5109897;28;20019;-52
2023/06/02 05:20:35;;;;;;;12.98;5.75;;;12.00;99.90;;;;;;5111430;28;20039;-53
2023/06/02 05:23:01;;;;;;;14.05;5.15;;;12.00;99.90;;;;;;5107400;28;20024;-60
2023/06/02 05:25:26;;;;;;;18.13;5.65;;;12.00;99.90;;;;;;5109157;28;20081;-61
2023/06/02 05:27:52;;;;;;;9.63;5.28;;;12.00;99.90;;;;;;5106299;28;20028;-60
2023/06/02 05:30:18;;;;;;;14.82;5.50;;;12.00;99.90;;;;;;5102918;28;20020;-57
2023/06/02 05:32:44;;;;;;;13.13;4.93;;;12.10;99.90;;;;;;5107147;28;20023;-61
2023/06/02 05:35:09;;;;;;;21.13;5.38;;;12.10;99.90;;;;;;5109486;28;20123;-57
2023/06/02 05:37:35;;;;;;;19.25;5.13;;;12.00;99.90;;;;;;5104538;28;20032;-56
2023/06/02 05:40:01;;;;;;;9.50;5.00;;;12.00;99.90;;;;;;5103378;28;20489;-61
2023/06/02 05:42:27;;;;;;;18.48;5.65;;;11.90;99.90;;;;;;5105838;28;20023;-59
2023/06/02 05:44:52;;;;;;;16.25;5.63;;;12.00;99.90;;;;;;5101562;28;20071;-60
2023/06/02 05:47:18;;;;;;;15.13;5.85;;;11.90;99.90;;;;;;5106271;28;20515;-56
2023/06/02 05:49:44;;;;;;;17.10;5.03;;;11.90;99.90;;;;;;5108633;28;20059;-58
2023/06/02 05:52:10;;;;;;;15.55;6.03;;;11.90;99.90;;;;;;5105073;28;20030;-61
2023/06/02 05:54:35;;;;;;;16.10;5.68;;;12.00;99.90;;;;;;5108251;28;20031;-61
2023/06/02 05:57:01;;;;;;;13.05;6.45;;;12.00;99.90;;;;;;5105463;28;20023;-59
2023/06/02 05:59:27;;;;;;;15.38;6.47;;;12.00;99.90;;;;;;5107867;28;20020;-53
2023/06/02 06:01:53;;;;;;;16.02;5.07;;;12.00;99.90;;;;;;5103710;28;20030;-60
2023/06/02 06:04:18;;;;;;;16.23;5.30;;;12.10;99.90;;;;;;5108861;28;20507;-60
2023/06/02 06:06:44;;;;;;;13.77;5.90;;;12.10;99.90;;;;;;5106216;28;20026;-61
2023/06/02 06:09:10;;;;;;;19.85;6.18;;;12.10;99.90;;;;;;5108192;28;20023;-58
2023/06/02 06:11:36;;;;;;;15.38;5.38;;;12.10;99.90;;;;;;5105429;28;20032;-57
2023/06/02 06:14:02;;;;;;;20.35;6.30;;;12.20;99.90;;;;;;5104648;28;20027;-59
2023/06/02 06:16:28;;;;;;;16.17;7.57;;;12.30;99.90;;;;;;5106591;28;20031;-56
2023/06/02 06:18:55;;;;;;;19.55;7.55;;;12.30;99.90;;;;;;5102769;28;20141;-55
2023/06/02 06:21:20;;;;;;;17.58;8.68;;;12.20;99.90;;;;;;5097168;28;20027;-58
2023/06/02 06:23:46;;;;;;;20.15;6.88;;;12.30;99.90;;;;;;5097862;28;21788;-58
2023/06/02 06:26:12;;;;;;;17.58;7.25;;;;;;;;;;5094287;28;20020;-59
2023/06/02 06:28:41;;;;;;;14.05;5.18;;;12.30;99.90;;;;;;5102719;28;20052;-59
2023/06/02 06:31:06;;;;;;;20.35;5.35;;;12.50;99.90;;;;;;5105331;28;20417;-59
2023/06/02 06:33:32;;;;;;;25.90;5.50;;;12.60;99.90;;;;;;5104786;28;20043;-60
2023/06/02 06:35:58;;;;;;;18.48;5.00;;;12.70;99.90;;;;;;5106252;28;20020;-54
2023/06/02 06:38:23;;;;;;;24.67;5.03;;;12.60;99.90;;;;;;5100526;28;20024;-58
2023/06/02 06:40:49;;;;;;;23.58;5.15;;;12.60;99.90;;;;;;5102669;28;20035;-53
2023/06/02 06:43:15;;;;;;;17.45;4.68;;;12.60;99.90;;;;;;5107827;28;20035;-61
2023/06/02 06:45:41;;;;;;;17.52;4.93;;;12.70;99.90;;;;;;5107738;28;20024;-61
2023/06/02 06:48:07;;;;;;;16.67;5.40;;;12.70;99.90;;;;;;5108419;28;20084;-60
2023/06/02 06:50:33;;;;;;;21.13;4.65;;;12.60;99.90;;;;;;5108538;28;20023;-58
2023/06/02 06:52:58;;;;;;;10.50;5.00;;;12.50;99.90;;;;;;5102092;28;20022;-54
2023/06/02 06:55:24;;;;;;;11.10;5.20;;;12.50;99.90;;;;;;5102872;28;20028;-60
2023/06/02 06:57:50;;;;;;;16.40;4.97;;;12.70;99.90;;;;;;5106777;28;20363;-60
2023/06/02 07:00:16;;;;;;;22.52;6.03;;;12.90;99.90;;;;;;5099996;28;20055;-60
2023/06/02 07:02:43;;;;;;;13.00;5.20;;;13.00;99.90;;;;;;5108903;28;20023;-60
2023/06/02 07:05:09;;;;;;;18.60;5.97;;;13.10;99.90;;;;;;5108780;28;20018;-60
2023/06/02 07:07:34;;;;;;;13.65;5.05;;;13.10;99.90;;;;;;5103551;28;20036;-59
2023/06/02 07:10:01;;;;;;;21.58;6.40;;;13.10;99.90;;;;;;5102613;28;20034;-60
2023/06/02 07:12:26;;;;;;;22.52;6.35;;;13.20;99.90;;;;;;5102684;28;20074;-59
2023/06/02 07:14:52;;;;;;;16.95;7.03;;;13.40;99.90;;;;;;5103187;28;20139;-60
2023/06/02 07:17:18;;;;;;;16.52;6.03;;;13.50;99.90;;;;;;5107380;28;20581;-61
2023/06/02 07:19:44;;;;;;;19.98;5.47;;;13.50;99.90;;;;;;5105651;28;20040;-60
2023/06/02 07:22:10;;;;;;;23.23;6.13;;;13.60;99.90;;;;;;5103374;28;20028;-52
2023/06/02 07:24:35;;;;;;;14.70;5.47;;;13.60;99.90;;;;;;5107231;28;20046;-57
2023/06/02 07:27:03;;;;;;;21.65;6.95;;;13.70;99.90;;;;;;5108362;28;20478;-59
2023/06/02 07:29:29;;;;;;;22.02;8.32;;;13.60;99.90;;;;;;5107279;28;20034;-60
2023/06/02 07:31:54;;;;;;;16.80;6.75;;;13.20;99.90;;;;;;5103902;28;20032;-59
2023/06/02 07:34:20;;;;;;;16.55;7.22;;;13.30;99.90;;;;;;5095114;28;20045;-59
2023/06/02 07:36:47;;;;;;;20.52;7.05;;;13.30;99.90;;;;;;5102552;28;20032;-61
2023/06/02 07:39:14;;;;;;;14.05;5.50;;;13.50;99.90;;;;;;5104927;28;20692;-60
2023/06/02 07:41:39;;;;;;;19.00;6.50;;;13.60;99.90;;;;;;5110468;28;20132;-59
2023/06/02 07:44:05;;;;;;;22.00;6.65;;;13.60;99.90;;;;;;5110300;28;20051;-59
2023/06/02 07:46:32;;;;;;;23.10;6.03;;;13.90;99.90;;;;;;5106267;28;20027;-56
2023/06/02 07:48:58;;;;;;;18.23;6.40;;;14.10;99.90;;;;;;5100760;28;20032;-61
2023/06/02 07:51:23;;;;;;;18.60;7.32;;;14.30;99.90;;;;;;5108557;28;20051;-61
2023/06/02 07:53:49;;;;;;;24.65;8.35;;;14.50;99.90;;;;;;5106231;28;20028;-58
2023/06/02 07:56:15;;;;;;;20.90;6.80;;;14.60;99.90;;;;;;5104834;28;20176;-62
2023/06/02 07:58:40;;;;;;;18.98;5.90;;;14.70;99.90;;;;;;5109474;28;20055;-59
2023/06/02 08:01:06;;;;;;;25.83;6.35;;;14.90;99.90;;;;;;5099935;28;20024;-58
2023/06/02 08:03:31;;;;;;;14.32;6.07;;;15.00;99.90;;;;;;5104555;28;20118;-61
2023/06/02 08:05:57;;;;;;;17.60;5.85;;;15.10;99.90;;;;;;5105411;28;20031;-63
2023/06/02 08:08:23;;;;;;;21.17;5.88;;;15.20;99.90;;;;;;5103293;28;20040;-61
2023/06/02 08:10:48;;;;;;;17.50;5.53;;;15.10;99.90;;;;;;5106080;28;20031;-61
2023/06/02 08:13:15;;;;;;;20.90;6.07;;;14.90;99.90;;;;;;5104068;28;20520;-59
2023/06/02 08:15:40;;;;;;;18.33;5.15;;;15.00;99.90;;;;;;5105149;28;20565;-59
2023/06/02 08:18:12;;;;;;;24.77;5.50;;;14.90;99.90;;;;;;5100714;28;20069;-62
2023/06/02 08:20:38;;;;;;;17.38;5.72;;;14.90;99.90;;;;;;5105091;28;20034;-61
2023/06/02 08:23:03;;;;;;;17.77;6.13;;;14.70;99.90;;;;;;5105228;28;20020;-59
2023/06/02 08:25:29;;;;;;;26.88;6.68;;;14.80;99.90;;;;;;5102135;28;20031;-58
2023/06/02 08:27:56;;;;;;;12.77;6.28;;;14.50;99.90;;;;;;5105402;28;20038;-59
2023/06/02 08:30:21;;;;;;;21.08;6.38;;;14.50;99.90;;;;;;5103743;28;20052;-62
2023/06/02 08:32:48;;;;;;;17.90;6.25;;;14.70;99.90;;;;;;5103124;28;20447;-60
2023/06/02 08:35:13;;;;;;;19.38;6.25;;;14.70;99.90;;;;;;5109072;28;20027;-58
2023/06/02 08:37:40;;;;;;;23.65;5.75;;;14.80;99.90;;;;;;5106687;28;20023;-58
2023/06/02 08:40:07;;;;;;;18.48;5.35;;;14.90;99.90;;;;;;5109352;28;20178;-62
2023/06/02 08:42:33;;;;;;;21.15;6.57;;;15.10;99.90;;;;;;5106941;28;20019;-58
2023/06/02 08:44:58;;;;;;;19.40;6.40;;;15.40;99.90;;;;;;5106150;28;20039;-60
2023/06/02 08:47:28;;;;;;;17.52;7.18;;;15.20;99.90;;;;;;5109236;28;20188;-54
2023/06/02 08:49:54;;;;;;;18.65;6.82;;;15.10;99.90;;;;;;5102834;28;20061;-56
2023/06/02 08:52:25;;;;;;;15.32;6.80;;;15.00;99.90;;;;;;5108854;28;20108;-59
2023/06/02 08:54:51;;;;;;;22.20;6.28;;;15.10;99.90;;;;;;5111286;28;20020;-60
2023/06/02 08:57:22;;;;;;;14.45;6.20;;;15.20;99.90;;;;;;5107129;28;20076;-59
2023/06/02 08:59:49;;;;;;;15.80;6.18;;;15.20;99.90;;;;;;5109193;28;20398;-58
2023/06/02 09:02:16;;;;;;;19.40;6.65;;;15.20;99.90;;;;;;5105322;28;20035;-61
2023/06/02 09:04:42;;;;;;;20.90;7.18;;;15.10;99.90;;;;;;5105789;28;20481;-60
2023/06/02 09:07:15;;;;;;;11.40;5.88;;;15.20;99.90;;;;;;5109821;28;20077;-59
2023/06/02 09:09:45;;;;;;;14.93;5.40;;;15.30;99.90;;;;;;5105413;28;20103;-59
2023/06/02 09:12:12;;;;;;;25.23;6.60;;;15.50;99.90;;;;;;5106564;28;20050;-61
2023/06/02 09:14:38;;;;;;;15.57;6.53;;;15.60;99.90;;;;;;5106326;28;20084;-59
2023/06/02 09:17:24;;;;;;;26.75;7.20;;;15.30;99.90;;;;;;5105534;28;20088;-59
2023/06/02 09:19:51;;;;;;;18.65;5.78;;;15.40;99.90;;;;;;5103322;28;20031;-57
2023/06/02 09:22:17;;;;;;;24.38;6.43;;;15.40;99.90;;;;;;5106808;28;20023;-55
2023/06/02 09:24:42;;;;;;;19.05;6.03;;;15.50;99.90;;;;;;5109379;28;20027;-61
2023/06/02 09:27:16;;;;;;;20.05;5.95;;;15.50;99.90;;;;;;5109629;28;20102;-60
2023/06/02 09:29:43;;;;;;;16.90;6.13;;;15.60;99.90;;;;;;5109437;28;20077;-60
2023/06/02 09:32:16;;;;;;;23.65;5.85;;;15.70;99.90;;;;;;5103712;28;20020;-59
2023/06/02 09:34:43;;;;;;;17.85;6.70;;;16.00;99.90;;;;;;5106348;28;20057;-58
2023/06/02 09:37:14;;;;;;;14.27;6.40;;;15.70;99.90;;;;;;5106832;28;20435;-59
2023/06/02 09:39:42;;;;;;;18.80;6.13;;;15.60;99.90;;;;;;5107997;28;20026;-60
2023/06/02 09:42:08;;;;;;;20.23;6.50;;;15.30;99.90;;;;;;5109961;28;20481;-56
2023/06/02 09:44:34;;;;;;;24.33;8.07;;;15.30;99.90;;;;;;5110545;28;20043;-58
2023/06/02 09:47:01;;;;;;;28.55;7.50;;;15.30;99.90;;;;;;5100756;28;20415;-59
2023/06/02 09:49:38;;;;;;;19.73;7.13;;;15.10;99.90;;;;;;5103229;28;20036;-62
2023/06/02 09:52:12;;;;;;;13.90;6.63;;;15.10;99.90;;;;;;5105753;28;20028;-58
2023/06/02 09:54:38;;;;;;;19.77;7.22;;;15.20;99.90;;;;;;5105124;28;20031;-61
2023/06/02 09:57:04;;;;;;;24.42;6.90;;;15.30;99.90;;;;;;5106630;28;20035;-60
2023/06/02 09:59:30;;;;;;;30.52;7.70;;;15.50;99.90;;;;;;5108297;28;20633;-60
2023/06/02 10:01:56;;;;;;;20.30;7.38;;;15.60;99.90;;;;;;5103580;28;20019;-61
2023/06/02 10:04:21;;;;;;;27.58;7.13;;;15.80;99.90;;;;;;5104532;28;20076;-60
2023/06/02 10:07:26;;;;;;;21.45;7.28;;;16.10;99.90;;;;;;5108784;28;20035;-63
2023/06/02 10:09:58;;;;;;;13.05;6.53;;;16.10;99.90;;;;;;5094800;28;20093;-59
2023/06/02 10:12:36;;;;;;;21.50;7.63;;;16.20;99.90;;;;;;5109247;28;20394;-56
2023/06/02 10:15:37;;;;;;;15.18;6.47;;;16.60;99.90;;;;;;5110397;28;20027;-57
2023/06/02 10:18:46;;;;;;;25.50;8.45;;;16.80;99.90;;;;;;5082535;28;20413;-58
2023/06/02 10:21:37;;;;;;;21.70;6.90;;;16.60;99.90;;;;;;5047617;28;20035;-55
2023/06/02 10:24:30;;;;;;;23.60;8.35;;;16.10;99.90;;;;;;5107863;28;20032;-59
2023/06/02 10:27:30;;;;;;;16.65;7.68;;;16.20;99.90;;;;;;5108476;28;20128;-59
2023/06/02 10:29:56;;;;;;;20.77;7.30;;;16.50;99.90;;;;;;5107615;28;20024;-63
2023/06/02 10:32:24;;;;;;;21.63;7.32;;;16.50;99.90;;;;;;5106751;28;20134;-61
2023/06/02 10:34:51;;;;;;;13.52;7.10;;;16.70;99.90;;;;;;5107858;28;20065;-59
2023/06/02 10:37:18;;;;;;;17.33;6.82;;;16.70;99.90;;;;;;5110015;28;20385;-60
2023/06/02 10:39:43;;;;;;;19.70;7.20;;;16.90;99.90;;;;;;5106292;28;20059;-58
2023/06/02 10:42:10;;;;;;;16.67;6.75;;;16.70;99.90;;;;;;5110806;28;20051;-54
2023/06/02 10:44:36;;;;;;;21.15;7.90;;;16.80;99.90;;;;;;5104687;28;20034;-58
2023/06/02 10:47:20;;;;;;;19.30;7.10;;;16.70;99.90;;;;;;5105474;28;20138;-60
2023/06/02 10:49:52;;;;;;;16.43;7.53;;;17.10;99.90;;;;;;5105713;28;20489;-59
2023/06/02 10:52:18;;;;;;;23.30;7.55;;;17.30;99.90;;;;;;5108528;28;20073;-57
2023/06/02 10:54:44;;;;;;;23.48;6.90;;;17.50;99.90;;;;;;5103487;28;20036;-58
2023/06/02 10:57:11;;;;;;;15.40;7.00;;;17.50;99.90;;;;;;5103369;28;20055;-60
2023/06/02 10:59:37;;;;;;;19.52;8.02;;;17.70;99.90;;;;;;5108393;28;20111;-61
2023/06/02 11:02:03;;;;;;;24.23;7.18;;;17.60;99.90;;;;;;5103921;28;20116;-58
2023/06/02 11:04:38;;;;;;;23.70;8.50;;;17.70;99.90;;;;;;5105351;28;20110;-59
2023/06/02 11:07:28;;;;;;;19.80;7.03;;;17.90;99.90;;;;;;5097816;28;20085;-60
2023/06/02 11:09:59;;;;;;;18.40;8.35;;;18.00;99.90;;;;;;5106148;28;20035;-59
2023/06/02 11:12:50;;;;;;;19.73;7.70;;;17.70;99.90;;;;;;5104729;28;20042;-57
2023/06/02 11:15:19;;;;;;;17.25;7.65;;;17.30;99.90;;;;;;5106192;28;20026;-60
2023/06/02 11:17:49;;;;;;;17.40;7.90;;;17.60;99.90;;;;;;5102170;28;20051;-58
2023/06/02 11:20:16;;;;;;;16.67;7.35;;;17.70;99.90;;;;;;5106281;28;20032;-59
2023/06/02 11:22:42;;;;;;;20.67;8.68;;;18.00;99.90;;;;;;5105899;28;20027;-60
2023/06/02 11:25:13;;;;;;;19.08;9.02;;;18.40;99.90;;;;;;5105283;28;20030;-60
2023/06/02 11:27:44;;;;;;;18.05;8.07;;;18.60;99.90;;;;;;5103589;28;20027;-59
2023/06/02 11:30:13;;;;;;;22.05;8.90;;;18.60;99.90;;;;;;5108447;28;20031;-58
2023/06/02 11:32:40;;;;;;;21.40;7.43;;;18.80;99.90;;;;;;5102682;28;20019;-60
2023/06/02 11:35:07;;;;;;;17.73;6.97;;;19.00;99.90;;;;;;5106084;28;20031;-56
2023/06/02 11:37:34;;;;;;;19.70;6.93;;;19.20;99.90;;;;;;5106253;28;20028;-60
2023/06/02 11:39:59;;;;;;;13.07;5.75;;;19.50;98.50;;;;;;5108089;28;20020;-58
2023/06/02 11:42:41;;;;;;;16.67;6.53;;;19.30;98.40;;;;;;5104331;28;20028;-57
2023/06/02 11:45:17;;;;;;;18.33;6.53;;;19.60;99.20;;;;;;5107066;28;20026;-58
2023/06/02 11:47:43;;;;;;;17.58;8.25;;;19.50;98.00;;;;;;5105554;28;20103;-58
2023/06/02 11:50:08;;;;;;;15.32;8.00;;;19.50;96.20;;;;;;5101825;28;20170;-61
2023/06/02 11:52:35;;;;;;;16.85;7.85;;;19.30;97.00;;;;;;5105801;28;20485;-60
2023/06/02 11:55:03;;;;;;;14.93;6.60;;;19.30;95.90;;;;;;5105535;28;20034;-59
2023/06/02 11:57:33;;;;;;;17.92;8.50;;;19.40;97.60;;;;;;5106539;28;20032;-60
2023/06/02 12:00:10;;;;;;;16.52;7.13;;;19.70;95.50;;;;;;5103792;28;20555;-61
2023/06/02 12:02:39;;;;;;;16.17;6.65;;;19.60;95.70;;;;;;5106900;28;20024;-60
2023/06/02 12:05:07;;;;;;;15.85;7.07;;;19.90;95.40;;;;;;5106319;28;20558;-58
2023/06/02 12:07:33;;;;;;;14.10;7.47;;;20.10;93.30;;;;;;5103327;28;20066;-57
2023/06/02 12:09:58;;;;;;;20.77;7.90;;;20.20;93.70;;;;;;5103132;28;20458;-53
2023/06/02 12:12:24;;;;;;;21.48;7.82;;;20.20;93.10;;;;;;5111995;28;20027;-54
2023/06/02 12:14:50;;;;;;;15.48;7.20;;;20.40;92.50;;;;;;5111043;28;20063;-57
2023/06/02 12:17:16;;;;;;;29.58;9.27;;;20.40;92.20;;;;;;5113809;28;20465;-55
2023/06/02 12:19:41;;;;;;;19.40;8.02;;;20.50;92.50;;;;;;5108458;28;20088;-61
2023/06/02 12:22:17;;;;;;;23.13;8.70;;;20.80;95.50;;;;;;5103057;28;20024;-56
2023/06/02 12:24:44;;;;;;;16.77;7.43;;;21.10;91.00;;;;;;5110274;28;20477;-54
2023/06/02 12:27:15;;;;;;;16.17;7.70;;;21.20;90.80;;;;;;5109457;28;20027;-59
2023/06/02 12:29:41;;;;;;;18.00;8.18;;;21.40;90.00;;;;;;5106338;28;20040;-58
2023/06/02 12:32:07;;;;;;;14.23;6.78;;;21.30;88.50;;;;;;5105763;28;20042;-56
2023/06/02 12:34:33;;;;;;;16.70;7.43;;;21.40;90.00;;;;;;5103094;28;20019;-59
2023/06/02 12:37:01;;;;;;;20.38;6.60;;;21.40;92.60;;;;;;5107016;28;20035;-59
2023/06/02 12:39:26;;;;;;;21.92;7.72;;;21.40;96.70;;;;;;5103783;28;20034;-60
2023/06/02 12:41:52;;;;;;;14.52;6.47;;;21.60;87.90;;;;;;5108759;28;20569;-57
2023/06/02 12:44:18;;;;;;;15.45;5.72;;;21.90;87.50;;;;;;5103761;28;20024;-55
2023/06/02 12:46:44;;;;;;;17.17;6.45;;;22.00;89.50;;;;;;5099876;28;20032;-58